Nearby METAR Reports

 

KGRB - Ashwaubenon, Wisconsin, USA
Distance from station: NW 5mi, 8km
Updated: Sat, 28-Jan-2023 5:53pm CST
Overcast
Overcast
 Wind from NE
Wind: NE 7 mph , 11 km/h
Temperature: 18°F , -8°C
Wind Chill: 9°F , -13°C
Dew Point: 9°F , -13°C
Humidity: 68%
Barometer: 30.20 inHg , 1022.7 hPa
Clouds: Overcast
Visibility: 10 miles , 16 km
Cloud details: Overcast 9500 ft
2023/01/28 23:53 KGRB 282353Z 04006KT 10SM OVC095 M08/M13 A3020 RMK AO2 SLP243 T10831133 11078 21094 56001
KATW - Appleton/Outagam, Wisconsin, USA
Distance from station: WSW 26mi, 42km
Updated: Sat, 28-Jan-2023 5:45pm CST
Overcast
Overcast
 Wind from NNE
Wind: NNE 7 mph , 11 km/h
Temperature: 16°F , -9°C
Wind Chill: 6°F , -14°C
Dew Point: 3°F , -16°C
Humidity: 57%
Barometer: 30.16 inHg , 1021.3 hPa
Clouds: Overcast
Visibility: 10 miles , 16 km
Cloud details: Partly cloudy 6000 ft
Overcast 8000 ft
2023/01/28 23:45 KATW 282345Z 03006KT 10SM SCT060 OVC080 M09/M16 A3016
 
KMTW - Manitowac Muni, Wisconsin, USA
Distance from station: SE 29mi, 47km
Updated: Sat, 28-Jan-2023 5:56pm CST
Overcast
Overcast
 Wind from N
Wind: N 5 mph , 7 km/h
Temperature: 18°F , -8°C
Wind Chill: 11°F , -12°C
Dew Point: 9°F , -13°C
Humidity: 68%
Barometer: 30.21 inHg , 1023 hPa
Clouds: Overcast
Visibility: 10 miles , 16 km
Cloud details: Overcast 7000 ft
2023/01/28 23:56 KMTW 282356Z AUTO 35004KT 10SM OVC070 M08/M13 A3021 RMK AO2 SLP242 T10831128 11067 21083 50004 FZRANO
KOCQ - Oconto, Wisconsin, USA
Distance from station: NNE 30mi, 49km
Updated: Sat, 28-Jan-2023 5:55pm CST
Clear
Clear
 Wind from calm
Wind: Calm
Temperature: 16°F , -9°C
Dew Point: 5°F , -15°C
Humidity: 62%
Barometer: 30.22 inHg , 1023.4 hPa
Clouds: Clear
Visibility: 10 miles , 16 km
2023/01/28 23:55 KOCQ 282355Z AUTO 00000KT 10SM CLR M09/M15 A3022 RMK AO1 T10921147 11081 21092
 
KEZS - Shawano Muni, Wisconsin, USA
Distance from station: NW 35mi, 56km
Updated: Sat, 28-Jan-2023 6:15pm CST
Partly cloudy
Partly cloudy
 Wind from calm
Wind: Calm
Temperature: 16°F , -9°C
Dew Point: 9°F , -13°C
Humidity: 73%
Barometer: 30.20 inHg , 1022.7 hPa
Clouds: Partly cloudy
Visibility: 10 miles , 16 km
Cloud details: Partly cloudy 12000 ft
2023/01/29 00:15 KEZS 290015Z AUTO 00000KT 10SM SCT120 M09/M13 A3020 RMK AO2 T10871131
KCLI - Clintonville, Wisconsin, USA
Distance from station: WNW 36mi, 58km
Updated: Sat, 28-Jan-2023 5:55pm CST
Partly cloudy
Partly cloudy
 Wind from E
Wind: E 3 mph , 6 km/h
Temperature: 16°F , -9°C
Dew Point: 5°F , -15°C
Humidity: 62%
Barometer: 30.21 inHg , 1023 hPa
Clouds: Partly cloudy
Visibility: 10 miles , 16 km
Cloud details: Partly cloudy 11000 ft
2023/01/28 23:55 KCLI 282355Z AUTO 08003KT 10SM SCT110 M09/M15 A3021 RMK AO2 T10931152 11089 21106 410241144
 
KOSH - Oshkosh, Wisconsin, USA
Distance from station: SW 41mi, 66km
Updated: Sat, 28-Jan-2023 5:53pm CST
Overcast
Overcast
 Wind from NE
Wind: NE 8 mph , 13 km/h
Temperature: 16°F , -9°C
Wind Chill: 5°F , -15°C
Dew Point: 7°F , -14°C
Humidity: 67%
Barometer: 30.18 inHg , 1022 hPa
Clouds: Overcast
Visibility: 10 miles , 16 km
Cloud details: Overcast 5500 ft
2023/01/28 23:53 KOSH 282353Z 04007KT 10SM OVC055 M09/M14 A3018 RMK AO2 SLP244 T10891144 11083 21094 50003 $
KSUE - Sturgeon Bay, Wisconsin, USA
Distance from station: NE 42mi, 68km
Updated: Sat, 28-Jan-2023 5:56pm CST
Mostly cloudy
Mostly cloudy
 Wind from NE
Wind: NE 6 mph , 9 km/h
Temperature: 16°F , -9°C
Wind Chill: 7°F , -14°C
Dew Point: 7°F , -14°C
Humidity: 67%
Barometer: 30.22 inHg , 1023.4 hPa
Clouds: Mostly cloudy
Visibility: 10 miles , 16 km
Cloud details: Mostly cloudy 12000 ft
2023/01/28 23:56 KSUE 282356Z AUTO 04005KT 10SM BKN120 M09/M14 A3022 RMK AO2 SLP247 T10891139 11056 21089 50005 FZRANO
 
KSBM - Sheboygan, Wisconsin, USA
Distance from station: SSE 46mi, 75km
Updated: Sat, 28-Jan-2023 5:53pm CST
Overcast
Overcast
 Wind from NNE
Wind: NNE 6 mph , 9 km/h
Temperature: 18°F , -8°C
Wind Chill: 10°F , -12°C
Dew Point: 9°F , -13°C
Humidity: 68%
Barometer: 30.18 inHg , 1022 hPa
Clouds: Overcast
Visibility: 8 miles , 13 km
Cloud details: Overcast 5500 ft
2023/01/28 23:53 KSBM 282353Z AUTO 03005KT 8SM OVC055 M08/M13 A3018 RMK AO2 SNE43 SLP234 P0000 60000 T10781128 11078 21083 58000
KPCZ - Waupaca, Wisconsin, USA
Distance from station: W 48mi, 77km
Updated: Sat, 28-Jan-2023 5:55pm CST
Overcast
Overcast
 Wind from NE
Wind: NE 3 mph , 6 km/h
Temperature: 18°F , -8°C
Dew Point: 5°F , -15°C
Humidity: 58%
Barometer: 30.19 inHg , 1022.4 hPa
Clouds: Overcast
Visibility: 10 miles , 16 km
Cloud details: Overcast 8000 ft
2023/01/28 23:55 KPCZ 282355Z AUTO 05003KT 10SM OVC080 M08/M15 A3019 RMK AO2 T10801149 11076 21090